Time;durP1;ratioP1;P1;durP2;ratioP2;P2;SDS_P1;SDS_P2;PMS_P1;PMS_P2;Temp;Humidity;BMP_temperature;BMP_pressure;BME280_temperature;BME280_humidity;BME280_pressure;Samples;Min_cycle;Max_cycle;Signal;HPM_P1;HPM_P2
2022/09/17 00:02:24;;;;;;;3.10;2.80;;;;;;;10.21;100.00;98918.34;4959142;28;20043;-77
2022/09/17 00:04:50;;;;;;;4.57;2.87;;;;;;;10.23;100.00;98913.63;4964924;29;20035;-80
2022/09/17 00:07:17;;;;;;;4.90;3.50;;;;;;;10.23;100.00;98912.81;4964842;29;20043;-81
2022/09/17 00:09:43;;;;;;;5.80;3.37;;;;;;;10.09;100.00;98898.66;4967342;29;20051;-77
2022/09/17 00:12:09;;;;;;;3.30;3.00;;;;;;;10.13;100.00;98910.53;4948040;29;20039;-76
2022/09/17 00:14:37;;;;;;;5.63;2.47;;;;;;;10.12;100.00;98913.38;4965285;29;20067;-77
2022/09/17 00:17:07;;;;;;;5.77;3.30;;;;;;;10.03;100.00;98904.78;4966219;28;20397;-76
2022/09/17 00:19:32;;;;;;;4.23;2.57;;;;;;;10.00;100.00;98910.53;4943419;29;20522;-77
2022/09/17 00:21:58;;;;;;;7.80;2.97;;;;;;;10.02;100.00;98903.16;4954651;29;20134;-77
2022/09/17 00:24:23;;;;;;;5.10;3.03;;;;;;;10.06;100.00;98907.03;4954872;29;20043;-78
2022/09/17 00:26:49;;;;;;;4.13;2.73;;;;;;;9.97;100.00;98881.69;4955048;29;20071;-76
2022/09/17 00:29:15;;;;;;;3.17;2.50;;;;;;;10.05;100.00;98902.75;4938007;29;20073;-78
2022/09/17 00:31:41;;;;;;;3.00;2.27;;;;;;;10.02;100.00;98895.19;4957816;29;20038;-77
2022/09/17 00:34:07;;;;;;;3.93;3.00;;;;;;;10.04;100.00;98894.97;4960162;29;20050;-78
2022/09/17 00:36:35;;;;;;;5.47;2.80;;;;;;;10.08;100.00;98905.00;4958392;29;20061;-75
2022/09/17 00:39:02;;;;;;;2.80;2.23;;;;;;;10.08;100.00;98897.00;4958800;29;20043;-75
2022/09/17 00:41:31;;;;;;;5.23;2.77;;;;;;;10.13;100.00;98905.22;4956310;29;20078;-77
2022/09/17 00:44:21;;;;;;;3.88;3.47;;;;;;;10.16;100.00;98899.50;4956148;29;20035;-78
2022/09/17 00:46:48;;;;;;;2.87;2.47;;;;;;;10.11;100.00;98907.25;4954518;29;20035;-77
2022/09/17 00:49:27;;;;;;;4.00;3.47;;;;;;;10.09;100.00;98900.50;4937358;29;20447;-80
2022/09/17 00:52:15;;;;;;;4.60;3.10;;;;;;;10.12;100.00;98916.03;4954871;29;20039;-76
2022/09/17 00:54:48;;;;;;;3.60;2.67;;;;;;;10.09;100.00;98903.97;4954899;29;20031;-77
2022/09/17 00:57:14;;;;;;;3.37;2.47;;;;;;;9.86;100.00;98867.16;4954246;29;20478;-77
2022/09/17 00:59:40;;;;;;;6.47;3.07;;;;;;;10.04;99.84;98906.44;4954608;29;20049;-79
2022/09/17 01:02:06;;;;;;;5.23;3.00;;;;;;;9.97;100.00;98900.28;4954695;29;20502;-79
2022/09/17 01:04:56;;;;;;;3.13;2.83;;;;;;;9.86;100.00;98888.44;4955011;29;20054;-77
2022/09/17 01:07:59;;;;;;;3.80;3.47;;;;;;;10.03;100.00;98910.09;4954565;29;20498;-77
2022/09/17 01:10:27;;;;;;;5.90;3.00;;;;;;;9.94;100.00;98900.69;4938062;29;20133;-77
2022/09/17 01:13:07;;;;;;;3.45;2.90;;;;;;;9.96;100.00;98897.84;4955743;29;20035;-76
2022/09/17 01:15:58;;;;;;;3.87;2.90;;;;;;;9.98;100.00;98895.78;4955461;29;20055;-79
2022/09/17 01:18:56;;;;;;;5.30;2.90;;;;;;;9.97;100.00;98896.81;4954460;29;20043;-78
2022/09/17 01:21:27;;;;;;;3.58;3.20;;;;;;;9.97;100.00;98902.94;4921113;29;20074;-79
2022/09/17 01:24:17;;;;;;;4.50;3.60;;;;;;;9.99;100.00;98898.25;4954335;29;20134;-76
2022/09/17 01:26:45;;;;;;;4.00;2.97;;;;;;;9.98;100.00;98904.59;4954017;29;20077;-76
2022/09/17 01:29:20;;;;;;;3.75;3.40;;;;;;;9.91;99.74;98891.28;4961195;29;20090;-77
2022/09/17 01:31:56;;;;;;;9.03;3.50;;;;;;;9.78;99.51;98885.13;4962471;29;20043;-78
2022/09/17 01:34:39;;;;;;;4.20;3.67;;;;;;;9.74;100.00;98883.91;4944264;29;20035;-78
2022/09/17 01:37:14;;;;;;;5.80;4.00;;;;;;;9.72;100.00;98891.25;4953369;29;20039;-77
2022/09/17 01:39:51;;;;;;;4.80;3.60;;;;;;;9.71;100.00;98881.66;4953352;29;20130;-76
2022/09/17 01:42:26;;;;;;;4.57;3.57;;;;;;;9.69;100.00;98878.38;4953506;29;20082;-78
2022/09/17 01:45:10;;;;;;;5.17;3.53;;;;;;;9.69;100.00;98870.41;4953812;29;20043;-77
2022/09/17 01:47:51;;;;;;;4.17;3.30;;;;;;;9.77;100.00;98894.13;4953584;29;20090;-77
2022/09/17 01:50:22;;;;;;;6.43;3.40;;;;;;;9.81;100.00;98884.72;4954457;29;20039;-77
2022/09/17 01:52:51;;;;;;;4.37;3.23;;;;;;;9.86;100.00;98882.31;4937195;29;20038;-77
2022/09/17 01:55:18;;;;;;;3.93;3.50;;;;;;;9.74;99.80;98874.09;4953766;29;20047;-77
2022/09/17 01:57:52;;;;;;;4.37;3.40;;;;;;;9.71;100.00;98877.16;4953685;29;20054;-78
2022/09/17 02:00:18;;;;;;;3.77;3.37;;;;;;;9.72;100.00;98870.00;4936549;29;20043;-76
2022/09/17 02:03:08;;;;;;;4.87;3.87;;;;;;;9.71;100.00;98873.69;4953408;29;20456;-77
2022/09/17 02:05:40;;;;;;;4.53;3.50;;;;;;;9.63;100.00;98866.72;4954528;29;20576;-76
2022/09/17 02:08:13;;;;;;;4.87;3.47;;;;;;;9.68;100.00;98876.75;4953685;29;20041;-75
2022/09/17 02:10:44;;;;;;;4.27;3.50;;;;;;;9.60;100.00;98873.28;4953810;29;20039;-76
2022/09/17 02:13:41;;;;;;;5.73;4.63;;;;;;;9.54;100.00;98874.09;4953893;29;20039;-76
2022/09/17 02:16:16;;;;;;;6.20;4.97;;;;;;;9.49;100.00;98865.88;4945310;29;20055;-77
2022/09/17 02:19:15;;;;;;;5.83;4.87;;;;;;;9.49;100.00;98865.88;4955066;29;20047;-76
2022/09/17 02:21:57;;;;;;;7.83;5.10;;;;;;;9.44;100.00;98857.69;4937038;29;20070;-76
2022/09/17 02:24:25;;;;;;;6.17;4.90;;;;;;;9.40;100.00;98863.63;4953764;29;20086;-75
2022/09/17 02:27:06;;;;;;;4.70;4.25;;;;;;;9.44;100.00;98863.00;4957994;29;20498;-77
2022/09/17 02:29:41;;;;;;;5.53;4.50;;;;;;;9.40;100.00;98851.16;4942047;29;20042;-77
2022/09/17 02:32:07;;;;;;;4.50;3.87;;;;;;;9.49;100.00;98862.41;4965687;29;20043;-77
2022/09/17 02:34:33;;;;;;;4.43;4.00;;;;;;;9.53;100.00;98860.97;4974715;29;20058;-78
2022/09/17 02:36:59;;;;;;;5.27;3.70;;;;;;;9.57;100.00;98862.22;4978879;29;20046;-76
2022/09/17 02:39:26;;;;;;;4.60;3.97;;;;;;;9.56;100.00;98858.75;4973635;29;20038;-77
2022/09/17 02:42:17;;;;;;;5.03;3.73;;;;;;;9.48;100.00;98856.25;4978442;29;20046;-76
2022/09/17 02:44:59;;;;;;;6.83;3.57;;;;;;;9.51;100.00;98863.84;4961193;29;20066;-77
2022/09/17 02:47:45;;;;;;;3.77;3.47;;;;;;;9.52;100.00;98856.69;4978378;29;20039;-77
2022/09/17 02:50:20;;;;;;;7.60;3.80;;;;;;;9.60;100.00;98862.63;4978375;29;20050;-76
2022/09/17 02:53:13;;;;;;;3.87;3.47;;;;;;;9.67;100.00;98865.28;4977457;29;20067;-76
2022/09/17 02:55:45;;;;;;;4.33;3.93;;;;;;;9.63;100.00;98861.41;4960537;29;20046;-76
2022/09/17 02:58:25;;;;;;;7.10;4.10;;;;;;;9.55;100.00;98854.47;4976077;29;20062;-75
2022/09/17 03:00:52;;;;;;;7.10;3.83;;;;;;;9.57;100.00;98859.56;4957119;29;20043;-78
2022/09/17 03:03:36;;;;;;;4.77;3.50;;;;;;;9.60;100.00;98862.63;4956542;29;20035;-78
2022/09/17 03:06:03;;;;;;;8.37;3.90;;;;;;;9.61;100.00;98848.31;4957995;29;20055;-77
2022/09/17 03:08:33;;;;;;;4.10;3.70;;;;;;;9.50;100.00;98840.94;4958706;29;20054;-79
2022/09/17 03:10:58;;;;;;;4.87;3.93;;;;;;;9.63;100.00;98862.22;4957309;29;20505;-78
2022/09/17 03:13:24;;;;;;;4.37;3.97;;;;;;;9.53;100.00;98845.03;4957259;29;20035;-77
2022/09/17 03:15:50;;;;;;;4.43;4.03;;;;;;;9.56;100.00;98850.78;4960189;29;20039;-76
2022/09/17 03:18:16;;;;;;;6.77;4.30;;;;;;;9.49;100.00;98843.78;4978276;29;20047;-77
2022/09/17 03:20:41;;;;;;;5.93;4.53;;;;;;;9.52;100.00;98849.53;4977452;29;20464;-76
2022/09/17 03:23:07;;;;;;;4.40;3.90;;;;;;;9.52;100.00;98859.34;4976836;29;20050;-76
2022/09/17 03:25:32;;;;;;;4.30;3.80;;;;;;;9.55;100.00;98853.63;4974332;29;20038;-76
2022/09/17 03:27:58;;;;;;;5.97;3.90;;;;;;;9.59;100.00;98855.69;4967704;29;20410;-77
2022/09/17 03:30:24;;;;;;;4.27;3.77;;;;;;;9.68;100.00;98858.97;4967111;29;20055;-78
2022/09/17 03:32:49;;;;;;;4.07;3.73;;;;;;;9.72;100.00;98856.72;4946084;29;20063;-77
2022/09/17 03:35:15;;;;;;;5.67;3.73;;;;;;;9.80;100.00;98861.81;4956850;29;20042;-75
2022/09/17 03:37:40;;;;;;;7.13;3.50;;;;;;;9.85;100.00;98864.72;4948221;29;20043;-76
2022/09/17 03:40:06;;;;;;;6.17;3.93;;;;;;;9.83;100.00;98854.28;4967702;29;20106;-77
2022/09/17 03:42:32;;;;;;;4.27;3.87;;;;;;;9.90;100.00;98859.59;4942739;29;20414;-77
2022/09/17 03:44:57;;;;;;;6.20;3.40;;;;;;;9.77;100.00;98839.13;4956802;29;20039;-77
2022/09/17 03:47:23;;;;;;;5.17;3.63;;;;;;;9.80;100.00;98845.88;4955854;29;20059;-77
2022/09/17 03:49:48;;;;;;;5.57;4.10;;;;;;;9.81;100.00;98850.16;4956091;29;20035;-77
2022/09/17 03:52:14;;;;;;;8.07;3.53;;;;;;;9.76;100.00;98839.31;4957371;29;20043;-76
2022/09/17 03:54:39;;;;;;;4.80;2.90;;;;;;;9.85;100.00;98848.75;4956371;29;20046;-77
2022/09/17 03:57:05;;;;;;;5.53;4.23;;;;;;;9.88;100.00;98843.84;4966994;29;20019;-76
2022/09/17 03:59:31;;;;;;;7.83;3.47;;;;;;;9.89;100.00;98840.16;4974542;29;20047;-77
2022/09/17 04:01:56;;;;;;;3.53;3.20;;;;;;;9.94;100.00;98844.88;4974443;29;20043;-76
2022/09/17 04:04:22;;;;;;;4.43;3.50;;;;;;;10.04;100.00;98842.59;4974946;29;20049;-77
2022/09/17 04:06:48;;;;;;;5.87;4.17;;;;;;;10.04;100.00;98837.28;4976219;29;20039;-76
2022/09/17 04:09:13;;;;;;;6.17;4.13;;;;;;;10.02;100.00;98834.00;4976058;29;20035;-78
2022/09/17 04:11:39;;;;;;;5.40;3.70;;;;;;;10.00;100.00;98830.75;4990394;28;20046;-78
2022/09/17 04:14:04;;;;;;;4.40;3.80;;;;;;;10.00;100.00;98825.41;4974484;29;20035;-77
2022/09/17 04:16:30;;;;;;;8.50;3.80;;;;;;;10.03;100.00;98826.84;4976443;29;20039;-77
2022/09/17 04:18:56;;;;;;;5.00;4.03;;;;;;;10.03;100.00;98827.66;4974453;29;20054;-76
2022/09/17 04:21:21;;;;;;;4.17;3.20;;;;;;;10.08;100.00;98829.69;4975325;29;20031;-78
2022/09/17 04:23:46;;;;;;;4.50;4.10;;;;;;;10.00;100.00;98820.09;4974977;29;20039;-79
2022/09/17 04:26:12;;;;;;;5.10;3.50;;;;;;;9.96;100.00;98826.03;4945085;29;20046;-78
2022/09/17 04:28:37;;;;;;;3.90;3.60;;;;;;;9.94;100.00;98826.25;4955613;29;20046;-77
2022/09/17 04:31:03;;;;;;;5.87;3.60;;;;;;;9.94;100.00;98816.44;4955480;29;20122;-75
2022/09/17 04:33:28;;;;;;;4.83;3.80;;;;;;;10.05;100.00;98830.13;4954034;29;20113;-77
2022/09/17 04:35:54;;;;;;;6.50;3.40;;;;;;;10.04;100.00;98820.50;4956449;29;20091;-76
2022/09/17 04:38:22;;;;;;;4.43;3.80;;;;;;;10.09;100.00;98826.84;4955182;29;20461;-78
2022/09/17 04:40:47;;;;;;;5.43;3.83;;;;;;;9.91;100.00;98810.72;4955617;29;20507;-78
2022/09/17 04:43:13;;;;;;;5.43;4.07;;;;;;;10.03;100.00;98827.66;4955101;29;20379;-77
2022/09/17 04:45:39;;;;;;;5.57;3.93;;;;;;;10.05;100.00;98825.63;4955067;29;20197;-77
2022/09/17 04:48:05;;;;;;;11.20;5.20;;;;;;;10.07;100.00;98836.88;4954356;28;20502;-77
2022/09/17 04:50:31;;;;;;;6.37;5.73;;;;;;;10.03;100.00;98827.66;4955116;29;20046;-78
2022/09/17 04:52:56;;;;;;;3.90;3.53;;;;;;;10.10;100.00;98836.44;4937192;29;20038;-75
2022/09/17 04:55:22;;;;;;;4.47;3.77;;;;;;;10.14;100.00;98832.38;4954500;29;20043;-77
2022/09/17 04:57:52;;;;;;;5.27;3.80;;;;;;;10.17;100.00;98826.66;4954129;29;20118;-76
2022/09/17 05:00:20;;;;;;;4.33;3.10;;;;;;;10.18;100.00;98828.28;4954340;29;20434;-77
2022/09/17 05:02:48;;;;;;;6.17;3.50;;;;;;;10.13;100.00;98825.44;4954269;29;20046;-77
2022/09/17 05:05:15;;;;;;;3.88;3.38;;;;;;;10.20;100.00;98836.91;4954456;29;20043;-77
2022/09/17 05:07:47;;;;;;;4.23;3.40;;;;;;;10.19;100.00;98835.22;4954409;29;20047;-76
2022/09/17 05:10:14;;;;;;;3.10;2.67;;;;;;;10.23;100.00;98833.81;4954591;29;20449;-77
2022/09/17 05:12:40;;;;;;;5.30;3.38;;;;;;;10.23;100.00;98827.69;4954121;29;20493;-77
2022/09/17 05:15:07;;;;;;;5.90;3.20;;;;;;;10.23;100.00;98833.00;4954389;29;20047;-76
2022/09/17 05:17:32;;;;;;;5.40;3.13;;;;;;;10.23;100.00;98831.16;4955225;29;20406;-78
2022/09/17 05:19:58;;;;;;;5.30;3.00;;;;;;;10.25;100.00;98822.97;4937275;29;20043;-78
2022/09/17 05:22:24;;;;;;;4.37;3.67;;;;;;;10.26;100.00;98829.09;4954132;29;20039;-78
2022/09/17 05:24:49;;;;;;;6.50;3.70;;;;;;;10.22;100.00;98818.88;4954595;29;20031;-78
2022/09/17 05:27:14;;;;;;;7.33;4.40;;;;;;;10.33;100.00;98814.75;4954777;29;20047;-78
2022/09/17 05:29:40;;;;;;;9.37;7.33;;;;;;;10.37;100.00;98809.84;4954569;29;20118;-78
2022/09/17 05:32:06;;;;;;;4.03;3.10;;;;;;;10.47;100.00;98804.91;4954625;29;20446;-77
2022/09/17 05:34:32;;;;;;;6.33;3.97;;;;;;;10.69;100.00;98824.88;4954140;29;20038;-75
2022/09/17 05:36:57;;;;;;;7.40;4.00;;;;;;;10.75;100.00;98824.06;4936927;29;20070;-76
2022/09/17 05:39:24;;;;;;;7.07;3.97;;;;;;;10.73;100.00;98820.78;4954488;29;20036;-79
2022/09/17 05:41:53;;;;;;;5.07;3.53;;;;;;;10.80;100.00;98826.91;4954909;29;20062;-76
2022/09/17 05:44:19;;;;;;;3.47;3.17;;;;;;;10.80;100.00;98826.91;4955300;29;20039;-76
2022/09/17 05:46:45;;;;;;;7.23;3.83;;;;;;;10.72;99.86;98823.66;4957823;29;20054;-75
2022/09/17 05:49:11;;;;;;;6.63;3.97;;;;;;;10.64;99.96;98821.22;4976931;28;20095;-75
2022/09/17 05:51:37;;;;;;;3.90;3.40;;;;;;;10.56;100.00;98793.00;4977949;28;20039;-77
2022/09/17 05:54:02;;;;;;;3.50;3.20;;;;;;;10.77;100.00;98819.34;4959736;29;20035;-77
2022/09/17 05:56:28;;;;;;;7.10;3.30;;;;;;;10.77;99.54;98818.53;4976389;28;20144;-75
2022/09/17 05:58:55;;;;;;;4.47;3.33;;;;;;;10.82;99.83;98822.19;4923943;29;20039;-77
2022/09/17 06:01:21;;;;;;;5.00;3.23;;;;;;;10.84;99.63;98812.13;4957906;28;20043;-77
2022/09/17 06:03:47;;;;;;;6.43;3.33;;;;;;;10.89;98.88;98802.69;4959077;29;20353;-77
2022/09/17 06:06:12;;;;;;;4.17;3.17;;;;;;;11.01;98.93;98817.81;4959448;29;20158;-77
2022/09/17 06:08:43;;;;;;;4.28;3.15;;;;;;;11.26;97.61;98823.19;4960527;29;20043;-78
2022/09/17 06:11:08;;;;;;;3.08;2.78;;;;;;;11.31;97.10;98827.91;4954595;29;20380;-78
2022/09/17 06:13:34;;;;;;;3.93;3.00;;;;;;;11.26;97.07;98817.84;4960389;29;20138;-77
2022/09/17 06:16:01;;;;;;;6.60;2.80;;;;;;;11.33;96.81;98821.31;4959133;29;20061;-77
2022/09/17 06:18:28;;;;;;;3.97;2.50;;;;;;;11.45;96.95;98821.44;4959515;29;20055;-77
2022/09/17 06:20:59;;;;;;;6.63;3.00;;;;;;;11.54;96.38;98820.13;4957402;29;20036;-76
2022/09/17 06:23:25;;;;;;;3.00;2.50;;;;;;;11.51;95.92;98825.91;4957557;29;20142;-77
2022/09/17 06:25:53;;;;;;;5.10;2.43;;;;;;;11.37;95.01;98816.38;4958083;29;20042;-77
2022/09/17 06:28:19;;;;;;;5.28;2.72;;;;;;;11.37;96.33;98835.84;4957564;29;20035;-77
2022/09/17 06:30:44;;;;;;;3.90;2.77;;;;;;;11.14;96.52;98824.91;4966289;29;20462;-76
2022/09/17 06:33:13;;;;;;;7.60;2.80;;;;;;;11.18;96.93;98824.25;4969421;29;20044;-78
2022/09/17 06:35:38;;;;;;;7.85;3.80;;;;;;;11.35;97.15;98840.56;4959366;29;20035;-78
2022/09/17 06:38:04;;;;;;;3.53;2.50;;;;;;;11.34;96.80;98832.78;4958632;29;20050;-77
2022/09/17 06:40:30;;;;;;;6.53;3.43;;;;;;;11.27;97.06;98832.81;4957362;29;20050;-77
2022/09/17 06:42:58;;;;;;;4.83;2.90;;;;;;;11.22;97.31;98831.81;4956825;29;20035;-77
2022/09/17 06:45:23;;;;;;;6.22;3.88;;;;;;;11.16;97.36;98842.31;4956580;29;20031;-77
2022/09/17 06:47:49;;;;;;;5.53;3.67;;;;;;;11.10;98.19;98843.16;4957406;29;20487;-78
2022/09/17 06:50:14;;;;;;;4.43;3.27;;;;;;;11.09;98.21;98841.53;4957137;29;20202;-77
2022/09/17 06:52:49;;;;;;;4.57;3.30;;;;;;;10.89;98.17;98818.66;4957193;29;20034;-79
2022/09/17 06:55:15;;;;;;;7.20;3.70;;;;;;;11.06;98.64;98841.13;4956951;29;20408;-79
2022/09/17 06:58:52;;;;;;;4.70;4.17;;;;;;;11.22;99.12;98842.47;4955605;29;20593;-79
2022/09/17 07:01:18;;;;;;;5.97;3.38;;;;;;;11.45;97.75;98853.41;4846494;29;20155;-78
2022/09/17 07:03:43;;;;;;;6.33;3.40;;;;;;;11.57;97.07;98849.06;4860751;29;20046;-79
2022/09/17 07:06:09;;;;;;;5.60;3.73;;;;;;;11.49;96.20;98828.78;4898239;29;20043;-78
2022/09/17 07:08:36;;;;;;;6.23;3.50;;;;;;;11.54;96.78;98837.97;4956804;29;20071;-76
2022/09/17 07:11:04;;;;;;;5.50;3.27;;;;;;;11.65;97.04;98842.63;4955823;28;20134;-77
2022/09/17 07:13:31;;;;;;;6.07;3.53;;;;;;;11.75;95.35;98829.63;4956171;29;20122;-74
2022/09/17 07:16:02;;;;;;;4.03;3.20;;;;;;;11.78;95.50;98834.56;4938568;29;20531;-76
2022/09/17 07:18:29;;;;;;;5.93;3.30;;;;;;;11.85;95.17;98840.66;4956117;29;20526;-74
2022/09/17 07:20:59;;;;;;;8.43;3.20;;;;;;;11.76;94.63;98842.75;4939424;29;20110;-75
2022/09/17 07:23:27;;;;;;;4.73;3.43;;;;;;;11.76;95.35;98841.94;4956838;29;20039;-79
2022/09/17 07:29:22;;;;;;;4.33;3.47;;;;;;;11.68;95.68;98844.88;4936745;29;20078;-76
2022/09/17 07:35:41;;;;;;;5.20;3.47;;;;;;;11.54;96.05;98821.97;4863449;29;20052;-77
2022/09/17 07:38:37;;;;;;;6.37;3.70;;;;;;;11.72;95.77;98840.72;4876001;29;20032;-78
2022/09/17 07:45:00;;;;;;;7.57;3.17;;;;;;;11.61;96.86;98812.09;4809791;29;20050;-79
2022/09/17 07:47:25;;;;;;;7.23;3.70;;;;;;;11.78;96.01;98850.56;4875892;29;20108;-75
2022/09/17 07:49:51;;;;;;;6.50;3.60;;;;;;;11.77;96.34;98840.88;4912238;29;20047;-75
2022/09/17 07:52:16;;;;;;;5.40;3.40;;;;;;;11.82;96.50;98849.09;4947650;29;20043;-75
2022/09/17 07:54:42;;;;;;;6.17;3.17;;;;;;;11.85;97.07;98851.31;4926554;29;20111;-76
2022/09/17 07:57:08;;;;;;;6.57;3.73;;;;;;;11.80;96.28;98837.81;4922367;29;20490;-76
2022/09/17 07:59:33;;;;;;;4.13;3.33;;;;;;;12.04;96.37;98850.34;4955221;29;20043;-77
2022/09/17 08:01:59;;;;;;;9.73;3.10;;;;;;;12.32;95.97;98851.75;4956043;29;20051;-75
2022/09/17 08:04:24;;;;;;;4.83;3.20;;;;;;;12.51;93.65;98841.91;4907816;29;20134;-78
2022/09/17 08:06:50;;;;;;;4.70;2.63;;;;;;;12.48;92.79;98840.50;4955157;29;20035;-77
2022/09/17 08:09:17;;;;;;;6.23;2.33;;;;;;;12.48;93.66;98851.19;4955341;29;20086;-75
2022/09/17 08:11:44;;;;;;;9.60;2.80;;;;;;;12.58;93.53;98845.31;4955411;29;20114;-76
2022/09/17 08:14:13;;;;;;;5.27;3.03;;;;;;;12.78;92.07;98853.13;4936955;29;20403;-78
2022/09/17 08:16:39;;;;;;;4.17;3.07;;;;;;;12.91;90.22;98851.09;4956060;29;20102;-75
2022/09/17 08:19:05;;;;;;;2.47;2.27;;;;;;;13.06;90.82;98845.38;4954997;29;20129;-77
2022/09/17 08:22:30;;;;;;;4.70;2.30;;;;;;;13.35;89.72;98851.00;4954423;29;20035;-78
2022/09/17 08:25:06;;;;;;;2.43;2.23;;;;;;;13.19;87.51;98818.50;4920163;29;20074;-76
2022/09/17 08:31:07;;;;;;;6.60;2.63;;;;;;;13.31;88.72;98840.75;4908572;29;20580;-75
2022/09/17 08:40:56;;;;;;;3.00;2.33;;;;;;;13.62;88.13;98833.53;4896060;29;20115;-77
2022/09/17 08:43:24;;;;;;;3.20;2.50;;;;;;;13.65;85.29;98830.38;4898125;29;20048;-80
2022/09/17 08:45:54;;;;;;;4.83;2.57;;;;;;;13.76;85.72;98848.31;4893345;29;20031;-79
2022/09/17 08:48:20;;;;;;;3.00;2.53;;;;;;;13.62;85.77;98836.19;4917119;29;20044;-80
2022/09/17 08:50:46;;;;;;;2.83;2.53;;;;;;;13.32;85.65;98830.88;4918661;29;20052;-81
2022/09/17 08:53:27;;;;;;;4.17;2.33;;;;;;;13.33;87.51;98849.38;4900274;29;20030;-81
2022/09/17 08:56:15;;;;;;;4.70;2.77;;;;;;;13.45;86.94;98851.25;4898684;29;20051;-75
2022/09/17 08:59:08;;;;;;;3.30;2.83;;;;;;;13.71;86.17;98850.06;4898420;29;20037;-80
2022/09/17 09:01:39;;;;;;;5.60;2.70;;;;;;;13.81;85.40;98848.44;4906885;29;20054;-78
2022/09/17 09:04:32;;;;;;;4.03;2.87;;;;;;;13.93;84.23;98851.16;4936189;29;20066;-78
2022/09/17 09:07:26;;;;;;;4.30;2.40;;;;;;;14.13;83.51;98853.47;4935247;29;20467;-74
2022/09/17 09:10:09;;;;;;;3.47;2.10;;;;;;;14.17;84.16;98855.47;4936102;29;20035;-78
2022/09/17 09:12:39;;;;;;;4.17;3.03;;;;;;;14.26;82.73;98850.59;4919168;29;20102;-77
2022/09/17 09:15:25;;;;;;;2.20;1.80;;;;;;;14.42;80.46;98855.22;4935253;29;20059;-78
2022/09/17 09:17:52;;;;;;;2.83;2.30;;;;;;;14.68;79.29;98853.13;4935598;29;20059;-79
2022/09/17 09:20:39;;;;;;;4.27;2.10;;;;;;;14.78;77.43;98854.19;4936010;29;20031;-76
2022/09/17 09:23:35;;;;;;;3.20;1.20;;;;;;;14.62;76.75;98851.41;4935442;29;20043;-78
2022/09/17 09:26:09;;;;;;;2.80;1.57;;;;;;;14.34;77.78;98850.22;4910314;29;20142;-77
2022/09/17 09:28:49;;;;;;;2.80;2.27;;;;;;;14.14;78.41;98855.09;4934803;29;20091;-78
2022/09/17 09:31:53;;;;;;;1.90;1.70;;;;;;;14.09;80.37;98855.00;4934406;29;20562;-79
2022/09/17 09:34:19;;;;;;;5.83;1.70;;;;;;;13.95;79.68;98852.53;4932220;29;20102;-77
2022/09/17 09:36:45;;;;;;;2.27;2.07;;;;;;;13.81;80.91;98856.47;4921832;29;20051;-79
2022/09/17 09:39:22;;;;;;;1.73;1.60;;;;;;;13.65;80.54;98859.81;4939040;29;20495;-76
2022/09/17 09:41:53;;;;;;;4.63;1.90;;;;;;;13.58;82.26;98859.06;4920857;29;20043;-75
2022/09/17 09:44:34;;;;;;;5.27;1.50;;;;;;;13.53;82.60;98865.09;4920882;29;20062;-79
2022/09/17 09:47:03;;;;;;;2.90;1.70;;;;;;;13.55;82.56;98859.53;4937860;29;20095;-78
2022/09/17 09:50:04;;;;;;;3.63;1.67;;;;;;;13.62;82.55;98863.75;4920445;29;20044;-76
2022/09/17 09:52:57;;;;;;;2.97;1.77;;;;;;;13.61;81.99;98834.56;4920066;29;20036;-78
2022/09/17 09:55:53;;;;;;;3.67;1.80;;;;;;;13.91;81.78;98870.13;4921244;29;20574;-77
2022/09/17 09:58:55;;;;;;;2.73;1.73;;;;;;;13.89;80.37;98871.38;4937650;29;20039;-77
2022/09/17 10:01:30;;;;;;;1.97;1.33;;;;;;;13.44;80.90;98820.22;4920101;29;20043;-77
2022/09/17 10:03:58;;;;;;;1.40;1.30;;;;;;;13.74;81.81;98866.47;4937892;29;20049;-78
2022/09/17 10:06:28;;;;;;;1.98;1.40;;;;;;;13.77;80.13;98859.84;4938413;29;20035;-79
2022/09/17 10:09:34;;;;;;;3.27;1.63;;;;;;;13.90;80.28;98873.03;4937631;29;20047;-77
2022/09/17 10:19:24;;;;;;;5.33;1.80;;;;;;;13.83;81.92;98889.16;4937406;29;20138;-76
2022/09/17 10:22:18;;;;;;;1.50;1.37;;;;;;;13.85;83.42;98892.41;4937610;29;20090;-77
2022/09/17 10:24:44;;;;;;;2.80;1.80;;;;;;;13.82;83.18;98892.88;4937870;29;20046;-77
2022/09/17 10:27:16;;;;;;;4.13;1.60;;;;;;;13.86;84.12;98894.03;4937173;29;20036;-79
2022/09/17 10:29:44;;;;;;;3.80;2.00;;;;;;;13.90;85.19;98891.75;4937359;29;20035;-78
2022/09/17 10:32:21;;;;;;;2.45;1.40;;;;;;;13.94;84.59;98893.72;4920480;29;20040;-78
2022/09/17 10:35:27;;;;;;;3.30;1.47;;;;;;;14.13;85.41;98896.31;4936484;29;20035;-78
2022/09/17 10:37:55;;;;;;;6.20;2.67;;;;;;;14.22;85.45;98874.34;4937183;29;20072;-76
2022/09/17 10:40:27;;;;;;;2.83;2.00;;;;;;;14.50;84.05;98892.44;4937197;29;20046;-78
2022/09/17 10:43:13;;;;;;;3.43;1.67;;;;;;;14.51;81.94;98895.91;4903947;29;20534;-78
2022/09/17 10:45:43;;;;;;;4.60;2.00;;;;;;;14.25;82.99;98889.13;4920529;29;20044;-78
2022/09/17 10:48:21;;;;;;;3.17;2.87;;;;;;;14.10;83.93;98896.78;4937850;29;20040;-79
2022/09/17 10:50:54;;;;;;;3.38;2.08;;;;;;;13.91;86.06;98906.75;4937754;29;20097;-77
2022/09/17 10:53:23;;;;;;;4.57;2.40;;;;;;;13.72;85.34;98895.31;4937445;29;20043;-77
2022/09/17 10:56:15;;;;;;;4.40;1.90;;;;;;;13.62;86.50;98922.59;4937165;29;20090;-76
2022/09/17 10:59:13;;;;;;;3.13;1.93;;;;;;;13.44;88.01;98919.16;4937207;29;20131;-77
2022/09/17 11:01:56;;;;;;;5.43;2.00;;;;;;;13.26;88.09;98917.31;4936733;29;20130;-78
2022/09/17 11:04:45;;;;;;;6.00;2.23;;;;;;;13.01;89.47;98918.22;4936813;29;20522;-77
2022/09/17 11:07:14;;;;;;;3.43;1.80;;;;;;;12.89;91.02;98925.31;4937337;29;20035;-79
2022/09/17 11:10:02;;;;;;;1.67;1.58;;;;;;;12.94;91.26;98924.63;4919821;29;20131;-78
2022/09/17 11:12:55;;;;;;;4.80;1.80;;;;;;;12.96;91.25;98923.38;4920522;29;20061;-77
2022/09/17 11:15:29;;;;;;;1.57;1.47;;;;;;;12.94;91.64;98921.97;4936816;29;20060;-77
2022/09/17 11:18:16;;;;;;;3.90;3.53;;;;;;;13.04;92.19;98924.97;4937036;29;20043;-77
2022/09/17 11:21:25;;;;;;;2.03;1.60;;;;;;;13.11;89.71;98925.69;4937566;29;20032;-79
2022/09/17 11:23:51;;;;;;;4.07;2.20;;;;;;;13.26;89.88;98928.00;4939489;29;20051;-79
2022/09/17 11:26:44;;;;;;;2.23;1.57;;;;;;;13.28;86.88;98932.06;4944216;29;20031;-75
2022/09/17 11:29:49;;;;;;;1.70;1.60;;;;;;;13.36;88.59;98932.84;4922727;29;20055;-75
2022/09/17 11:32:49;;;;;;;5.13;2.43;;;;;;;13.40;90.37;98934.81;4935393;29;20055;-78
2022/09/17 11:35:26;;;;;;;5.23;2.07;;;;;;;13.41;88.84;98924.94;4955643;29;20505;-78
2022/09/17 11:38:02;;;;;;;4.43;1.77;;;;;;;13.46;89.46;98931.25;4953604;29;20041;-78
2022/09/17 11:40:36;;;;;;;1.70;1.13;;;;;;;13.58;89.14;98928.59;4930797;29;20036;-76
2022/09/17 11:43:27;;;;;;;2.67;1.97;;;;;;;13.64;88.63;98919.69;4936656;29;20031;-76
2022/09/17 11:46:17;;;;;;;5.63;2.03;;;;;;;13.70;87.60;98917.97;4919854;29;20067;-78
2022/09/17 11:48:46;;;;;;;3.03;2.73;;;;;;;13.73;87.38;98918.34;4906265;29;20043;-77
2022/09/17 11:51:35;;;;;;;5.03;2.37;;;;;;;13.80;86.05;98911.03;4919259;29;20039;-79
2022/09/17 11:54:19;;;;;;;2.20;2.00;;;;;;;13.86;86.99;98928.00;4918900;29;20039;-80
2022/09/17 11:56:51;;;;;;;4.00;2.90;;;;;;;13.78;86.65;98921.13;4937066;29;20039;-76
2022/09/17 11:59:29;;;;;;;5.30;2.70;;;;;;;13.73;86.90;98934.38;4936461;29;20443;-81
2022/09/17 12:02:02;;;;;;;7.63;3.45;;;;;;;13.60;87.57;98929.22;4936469;29;20039;-78
2022/09/17 12:04:50;;;;;;;5.77;3.30;;;;;;;13.54;87.89;98943.47;4939340;29;20580;-78
2022/09/17 12:07:42;;;;;;;4.28;3.10;;;;;;;13.44;87.79;98956.59;4941646;29;20048;-79
2022/09/17 12:10:41;;;;;;;4.67;2.63;;;;;;;13.38;88.86;98960.97;4942962;29;20112;-79
2022/09/17 12:13:29;;;;;;;8.17;2.27;;;;;;;12.99;88.74;98935.47;5040270;23;20044;-79
2022/09/17 12:16:23;;;;;;;3.28;2.40;;;;;;;12.78;91.25;98952.78;4960753;28;20027;-78
2022/09/17 12:18:56;;;;;;;2.63;1.87;;;;;;;12.44;92.24;98946.09;4938720;29;20042;-77
2022/09/17 12:21:29;;;;;;;4.33;3.27;;;;;;;12.21;94.89;98951.22;4937154;29;20555;-80
2022/09/17 12:24:13;;;;;;;3.60;2.57;;;;;;;12.03;97.19;98971.44;4930822;29;20213;-76
2022/09/17 12:27:01;;;;;;;6.70;2.37;;;;;;;11.83;97.60;98973.41;4913825;29;20050;-76
2022/09/17 12:30:04;;;;;;;4.67;2.93;;;;;;;11.83;100.00;98975.25;4908823;29;20519;-76
2022/09/17 12:32:42;;;;;;;7.27;3.57;;;;;;;11.89;100.00;98969.09;4911890;29;20102;-76